Terminal Aerodrome Forecast
Issued by NWS

Home | Current Version | Previous Version | Text Only | Print | Product List | Glossary On
Versions: 1 2 3 4 5 6 7 8 9 10 11 12
000
FTUS45 KGGW 220533
TAFOLF
TAF
KOLF 220533Z 2206/2306 VRB03KT P6SM SCT110
     FM221200 VRB03KT P6SM VCSH BKN100
     FM221500 00000KT P6SM -SHRA BKN090
     FM222000 36009KT P6SM VCTS BKN080CB
     FM230100 06006KT P6SM SCT070=

USA.gov is the U.S. government's official web portal to all federal, state and local government web resources and services.